首页
METAR-TAF:

METAR-TAF

机场 :

Holzdorf, 德国

纬度: 51-46N, 经度: 013-11E, 海拔: 79米

当前天气观测

该预报发布于34分钟前的04:20 UTC
风速3节,风向西转西南
温度 2°C
湿度 87%
气压 1028 hPa
能见度10公里或以上
多云层高于1200英尺
多云层高于4500英尺

METAR: ETSH 190420Z 25003KT 9999 BKN012 BKN045 02/00 Q1028 GRN

时间: 05:54 (04:54 UTC)


TAF: 丢失

超过4000个机场的气象观测和天气预报(METAR&TAF报告)。

可查询的气象台以黄色和红色小点在地图上表示。

将鼠标移到小点上方,可查看气象台名称。

然后点击查看天气观测和预报。

如需切换地图:点击带黑十字的绿色按钮放大地图;点击带横线的绿色按钮缩小地图;或者点击绿色箭头查看邻近地区的地图。


METAR-TAF: